createdAt,value
2022-09-21T00:01:26.040Z,1020.43
2022-09-21T00:07:45.979Z,1020.41
2022-09-21T00:14:09.010Z,1020.43
2022-09-21T00:20:28.991Z,1020.41
2022-09-21T00:26:51.975Z,1020.39
2022-09-21T00:33:11.991Z,1020.41
2022-09-21T00:39:35.007Z,1020.45
2022-09-21T00:45:55.026Z,1020.51
2022-09-21T00:52:18.019Z,1020.53
2022-09-21T00:58:37.992Z,1020.58
2022-09-21T01:05:00.992Z,1020.62
2022-09-21T01:11:21.036Z,1020.68
2022-09-21T01:17:44.000Z,1020.66
2022-09-21T01:24:03.989Z,1020.68
2022-09-21T01:30:27.006Z,1020.68
2022-09-21T01:36:46.983Z,1020.74
2022-09-21T01:43:10.039Z,1020.76
2022-09-21T01:49:29.994Z,1020.76
2022-09-21T01:55:53.003Z,1020.74
2022-09-21T02:02:13.022Z,1020.78
2022-09-21T02:08:36.158Z,1020.78
2022-09-21T02:14:55.976Z,1020.78
2022-09-21T02:21:18.994Z,1020.8
2022-09-21T02:27:38.990Z,1020.8
2022-09-21T02:34:01.984Z,1020.74
2022-09-21T02:40:22.022Z,1020.7
2022-09-21T02:46:45.019Z,1020.68
2022-09-21T02:53:04.986Z,1020.66
2022-09-21T02:59:27.976Z,1020.64
2022-09-21T03:05:48.002Z,1020.62
2022-09-21T03:12:10.992Z,1020.6
2022-09-21T03:18:30.999Z,1020.6
2022-09-21T03:24:54.011Z,1020.64
2022-09-21T03:41:01.971Z,1020.72
2022-09-21T03:47:21.980Z,1020.74
2022-09-21T03:53:45.018Z,1020.76
2022-09-21T04:00:05.008Z,1020.72
2022-09-21T04:06:27.992Z,1020.72
2022-09-21T04:12:48.001Z,1020.7
2022-09-21T04:19:10.997Z,1020.74
2022-09-21T04:25:31.010Z,1020.8
2022-09-21T04:31:54.002Z,1020.82
2022-09-21T04:38:14.052Z,1020.82
2022-09-21T04:44:37.011Z,1020.82
2022-09-21T04:50:56.986Z,1020.95
2022-09-21T04:57:20.042Z,1020.96
2022-09-21T05:03:40.040Z,1021.02
2022-09-21T05:10:02.973Z,1021.08
2022-09-21T05:16:23.033Z,1021.12
2022-09-21T05:22:45.996Z,1021.18
2022-09-21T05:29:06.161Z,1021.22
2022-09-21T05:35:29.019Z,1021.28
2022-09-21T05:41:48.990Z,1021.34
2022-09-21T05:48:11.998Z,1021.38
2022-09-21T05:54:31.999Z,1021.41
2022-09-21T06:00:55.044Z,1021.43
2022-09-21T06:07:14.990Z,1021.53
2022-09-21T06:13:38.027Z,1021.61
2022-09-21T06:19:58.022Z,1021.69
2022-09-21T06:26:20.981Z,1021.75
2022-09-21T06:32:41.009Z,1021.75
2022-09-21T06:39:03.985Z,1021.75
2022-09-21T06:45:23.992Z,1021.79
2022-09-21T06:51:47.023Z,1021.75
2022-09-21T06:58:06.984Z,1021.79
2022-09-21T07:04:30.010Z,1021.77
2022-09-21T07:10:50.010Z,1021.81
2022-09-21T07:17:15.426Z,1021.83
2022-09-21T07:23:32.983Z,1021.86
2022-09-21T07:29:56.008Z,1021.9
2022-09-21T07:36:16.007Z,1021.94
2022-09-21T07:42:38.977Z,1021.92
2022-09-21T07:48:59.015Z,1021.92
2022-09-21T07:55:21.988Z,1021.96
2022-09-21T08:01:42.011Z,1021.96
2022-09-21T08:08:05.026Z,1021.96
2022-09-21T08:14:26.456Z,1021.98
2022-09-21T08:20:47.970Z,1021.94
2022-09-21T08:27:08.073Z,1021.96
2022-09-21T08:33:30.987Z,1021.96
2022-09-21T08:39:50.989Z,1021.96
2022-09-21T08:46:14.057Z,1021.94
2022-09-21T09:02:03.034Z,1021.94
2022-09-21T09:08:25.994Z,1021.88
2022-09-21T09:14:46.005Z,1021.86
2022-09-21T09:21:09.054Z,1021.85
2022-09-21T09:27:28.974Z,1021.85
2022-09-21T09:33:51.992Z,1021.81
2022-09-21T09:40:12.063Z,1021.77
2022-09-21T09:46:35.037Z,1021.71
2022-09-21T09:52:54.970Z,1021.69
2022-09-21T09:59:18.001Z,1021.67
2022-09-21T10:05:37.995Z,1021.61
2022-09-21T10:12:00.983Z,1021.57
2022-09-21T10:18:21.012Z,1021.49
2022-09-21T10:24:43.981Z,1021.39
2022-09-21T10:31:03.992Z,1021.39
2022-09-21T10:37:27.031Z,1021.34
2022-09-21T10:43:46.975Z,1021.32
2022-09-21T10:50:10.009Z,1021.3
2022-09-21T10:56:30.002Z,1021.3
2022-09-21T11:02:53.026Z,1021.24
2022-09-21T11:09:12.985Z,1021.24
2022-09-21T11:15:36.039Z,1021.2
2022-09-21T11:21:55.988Z,1021.14
2022-09-21T11:28:19.144Z,1021.04
2022-09-21T11:34:39.027Z,1020.98
2022-09-21T11:41:02.233Z,1020.8
2022-09-21T11:47:22.235Z,1020.74
2022-09-21T11:53:45.011Z,1020.7
2022-09-21T12:00:04.973Z,1020.72
2022-09-21T12:06:27.987Z,1020.64
2022-09-21T12:12:48.001Z,1020.62
2022-09-21T12:19:10.969Z,1020.51
2022-09-21T12:25:30.990Z,1020.43
2022-09-21T12:31:54.010Z,1020.33
2022-09-21T12:38:14.281Z,1020.31
2022-09-21T12:44:36.969Z,1020.23
2022-09-21T12:50:56.995Z,1020.19
2022-09-21T12:57:38.509Z,1020.09
2022-09-21T13:03:39.980Z,1020.06
2022-09-21T13:10:03.027Z,1020.02
2022-09-21T13:16:23.038Z,1019.94
2022-09-21T13:22:45.995Z,1019.92
2022-09-21T13:29:06.018Z,1019.88
2022-09-21T13:35:28.979Z,1019.78
2022-09-21T13:42:02.637Z,1019.72
2022-09-21T13:48:12.175Z,1019.66
2022-09-21T13:54:31.984Z,1019.62
2022-09-21T14:00:55.037Z,1019.59
2022-09-21T14:07:15.000Z,1019.51
2022-09-21T14:13:38.005Z,1019.45
2022-09-21T14:19:58.024Z,1019.41
2022-09-21T14:37:11.513Z,1019.29
2022-09-21T14:43:30.972Z,1019.25
2022-09-21T14:49:53.992Z,1019.17
2022-09-21T14:56:14.039Z,1019.15
2022-09-21T15:02:36.990Z,1019.1
2022-09-21T15:08:57.099Z,1019.04
2022-09-21T15:15:20.326Z,1018.98
2022-09-21T15:21:40.013Z,1018.92
2022-09-21T15:28:02.984Z,1018.88
2022-09-21T15:34:23.007Z,1018.86
2022-09-21T15:40:46.138Z,1018.86
2022-09-21T15:47:06.007Z,1018.82
2022-09-21T15:53:29.020Z,1018.8
2022-09-21T15:59:49.011Z,1018.78
2022-09-21T16:06:12.031Z,1018.8
2022-09-21T16:12:31.997Z,1018.8
2022-09-21T16:18:54.984Z,1018.76
2022-09-21T16:25:14.990Z,1018.76
2022-09-21T16:31:38.057Z,1018.8
2022-09-21T16:37:57.979Z,1018.82
2022-09-21T16:44:21.078Z,1018.82
2022-09-21T16:50:41.017Z,1018.84
2022-09-21T16:57:03.991Z,1018.88
2022-09-21T17:03:23.965Z,1018.9
2022-09-21T17:09:47.027Z,1018.9
2022-09-21T17:16:07.013Z,1018.92
2022-09-21T17:22:30.018Z,1018.94
2022-09-21T17:28:50.014Z,1018.96
2022-09-21T17:35:12.974Z,1019
2022-09-21T17:41:32.983Z,1019
2022-09-21T17:47:55.990Z,1019.04
2022-09-21T17:54:16.004Z,1019.06
2022-09-21T18:00:38.970Z,1019.08
2022-09-21T18:06:59.011Z,1019.1
2022-09-21T18:13:21.978Z,1019.17
2022-09-21T18:19:41.972Z,1019.21
2022-09-21T18:26:05.006Z,1019.21
2022-09-21T18:32:24.963Z,1019.27
2022-09-21T18:38:47.972Z,1019.31
2022-09-21T18:45:08.023Z,1019.33
2022-09-21T18:51:30.993Z,1019.39
2022-09-21T18:57:50.987Z,1019.43
2022-09-21T19:04:13.999Z,1019.45
2022-09-21T19:10:33.984Z,1019.53
2022-09-21T19:16:57.076Z,1019.55
2022-09-21T19:23:16.990Z,1019.57
2022-09-21T19:29:40.072Z,1019.57
2022-09-21T19:51:32.292Z,1019.55
2022-09-21T19:57:54.975Z,1019.55
2022-09-21T20:04:14.983Z,1019.55
2022-09-21T20:10:38.006Z,1019.51
2022-09-21T20:16:57.995Z,1019.55
2022-09-21T20:23:20.978Z,1019.57
2022-09-21T20:29:44.704Z,1019.59
2022-09-21T20:36:04.300Z,1019.55
2022-09-21T20:42:23.975Z,1019.57
2022-09-21T20:48:47.013Z,1019.53
2022-09-21T20:55:06.979Z,1019.55
2022-09-21T21:01:30.040Z,1019.53
2022-09-21T21:07:50.023Z,1019.53
2022-09-21T21:14:13.002Z,1019.53
2022-09-21T21:20:33.015Z,1019.57
2022-09-21T21:27:02.980Z,1019.62
2022-09-21T21:33:15.984Z,1019.64
2022-09-21T21:39:38.987Z,1019.64
2022-09-21T21:46:02.411Z,1019.64
2022-09-21T21:52:22.007Z,1019.7
2022-09-21T21:58:41.972Z,1019.68
2022-09-21T22:21:40.007Z,1019.6
2022-09-21T22:27:59.973Z,1019.62
2022-09-21T22:34:23.009Z,1019.62
2022-09-21T22:40:43.167Z,1019.59
2022-09-21T22:47:05.972Z,1019.57
2022-09-21T22:53:26.024Z,1019.6
2022-09-21T22:59:48.995Z,1019.57
2022-09-21T23:06:08.995Z,1019.55
2022-09-21T23:12:31.979Z,1019.53
2022-09-21T23:18:51.995Z,1019.51
2022-09-21T23:25:14.986Z,1019.49
2022-09-21T23:31:35.032Z,1019.49
2022-09-21T23:37:58.017Z,1019.51
2022-09-21T23:44:17.992Z,1019.49
2022-09-21T23:50:40.983Z,1019.53
2022-09-21T23:57:01.021Z,1019.55
